Maldives Meteorological Service

SYNOP

Station Code SYNOP
43555
AAXX 20094 43555 42462 30914 10316 20251 30106 40108 83201 333 58010 83818=
43533
AAXX 20094 43533 42460 20509 10311 20261 30110 40112 82201 333 58011 82818=
43577
AAXX 20094 43577 42461 50708 10312 20265 30106 40108 82932 333 58009 81818 81919 85077=
43588
AAXX 20094 43588 42460 50905 10313 20260 30103 40104 82232 333 58009 82818 83077=
43599
AAXX 20094 43599 41460 70907 10314 20261 30104 40106 70182 82262 333 58011 82818 87076=
Last Updated : 2019-02-20 14:00:14